Time;durP1;ratioP1;P1;durP2;ratioP2;P2;SDS_P1;SDS_P2;PMS_P1;PMS_P2;Temp;Humidity;BMP_temperature;BMP_pressure;BME280_temperature;BME280_humidity;BME280_pressure;Samples;Min_cycle;Max_cycle;Signal;HPM_P1;HPM_P2
2023/02/19 00:01:44;;;;;;;4.55;4.35;;;3.40;99.90;;;;;;6065130;23;20381;-76
2023/02/19 00:04:14;;;;;;;5.07;4.78;;;3.40;99.90;;;;;;6090159;23;20382;-74
2023/02/19 00:06:41;;;;;;;4.88;4.57;;;3.30;99.90;;;;;;6089170;23;20457;-76
2023/02/19 00:09:10;;;;;;;4.88;4.57;;;3.30;99.90;;;;;;6064875;23;20408;-75
2023/02/19 00:11:38;;;;;;;5.05;4.70;;;3.40;99.90;;;;;;6064070;23;20714;-75
2023/02/19 00:14:05;;;;;;;5.18;4.88;;;3.40;99.90;;;;;;6065927;23;20384;-74
2023/02/19 00:16:35;;;;;;;4.90;4.60;;;3.40;99.90;;;;;;6091873;23;20437;-74
2023/02/19 00:19:05;;;;;;;5.00;4.70;;;3.40;99.90;;;;;;6067748;23;20397;-76
2023/02/19 00:21:33;;;;;;;4.90;4.60;;;3.40;99.90;;;;;;6066538;23;20393;-75
2023/02/19 00:24:02;;;;;;;4.85;4.57;;;3.50;99.90;;;;;;6092839;23;20385;-75
2023/02/19 00:26:29;;;;;;;4.15;3.95;;;3.40;99.90;;;;;;6065854;23;20687;-76
2023/02/19 00:28:57;;;;;;;4.15;3.95;;;3.30;99.90;;;;;;6092775;23;20374;-75
2023/02/19 00:31:29;;;;;;;4.40;4.20;;;3.20;99.90;;;;;;6066116;23;20401;-76
2023/02/19 00:34:02;;;;;;;4.07;3.78;;;3.10;99.90;;;;;;6068470;23;20849;-76
2023/02/19 00:36:30;;;;;;;4.55;4.30;;;3.10;99.90;;;;;;6091746;23;20385;-75
2023/02/19 00:38:58;;;;;;;4.32;4.13;;;3.00;99.90;;;;;;6092461;23;20378;-75
2023/02/19 00:41:25;;;;;;;4.75;4.47;;;2.90;99.90;;;;;;6091336;23;20695;-75
2023/02/19 00:43:57;;;;;;;4.65;4.35;;;2.80;99.90;;;;;;6092452;23;20901;-75
2023/02/19 00:46:27;;;;;;;4.50;4.30;;;2.80;99.90;;;;;;6065251;23;20854;-75
2023/02/19 00:48:55;;;;;;;4.77;4.57;;;2.80;99.90;;;;;;6066932;23;20556;-75
2023/02/19 00:51:28;;;;;;;4.53;4.30;;;2.80;99.90;;;;;;6089657;23;20386;-76
2023/02/19 00:53:56;;;;;;;5.20;4.90;;;2.80;99.90;;;;;;6066743;23;20734;-77
2023/02/19 00:56:23;;;;;;;4.83;4.63;;;2.80;99.90;;;;;;6091365;23;20409;-76
2023/02/19 00:58:50;;;;;;;4.85;4.65;;;2.80;99.90;;;;;;6067666;23;20413;-75
2023/02/19 01:01:18;;;;;;;4.88;4.68;;;2.80;99.90;;;;;;6092225;23;20433;-75
2023/02/19 01:03:45;;;;;;;4.72;4.50;;;2.80;99.90;;;;;;6065938;23;20428;-76
2023/02/19 01:06:15;;;;;;;4.80;4.60;;;2.70;99.90;;;;;;6067593;23;20374;-75
2023/02/19 01:08:42;;;;;;;5.07;4.78;;;2.70;99.90;;;;;;6091297;23;20404;-75
2023/02/19 01:11:09;;;;;;;4.38;4.13;;;2.70;99.90;;;;;;6067494;23;20400;-75
2023/02/19 01:13:38;;;;;;;4.25;4.05;;;2.70;99.90;;;;;;6091348;23;20460;-76
2023/02/19 01:16:14;;;;;;;4.30;4.10;;;2.70;99.90;;;;;;6067743;23;20873;-75
2023/02/19 01:18:41;;;;;;;4.70;4.40;;;2.70;99.90;;;;;;6091288;23;20721;-74
2023/02/19 01:21:29;;;;;;;4.30;4.10;;;2.70;99.90;;;;;;6067866;23;20381;-74
2023/02/19 01:23:57;;;;;;;4.25;4.05;;;2.60;99.90;;;;;;6068348;23;20381;-74
2023/02/19 01:26:27;;;;;;;5.30;5.00;;;2.50;99.90;;;;;;6094237;23;20438;-75
2023/02/19 01:28:54;;;;;;;4.68;4.47;;;2.40;99.90;;;;;;6068191;23;20912;-75
2023/02/19 01:31:23;;;;;;;4.35;4.15;;;2.40;99.90;;;;;;6093422;23;20421;-75
2023/02/19 01:33:53;;;;;;;4.05;3.88;;;2.40;99.90;;;;;;6068375;23;20527;-74
2023/02/19 01:36:21;;;;;;;3.97;3.78;;;2.40;99.90;;;;;;6093809;23;20853;-75
2023/02/19 01:38:48;;;;;;;4.20;4.00;;;2.40;99.90;;;;;;6093527;23;20424;-74
2023/02/19 01:41:21;;;;;;;4.47;4.28;;;2.40;99.90;;;;;;6092951;23;20389;-75
2023/02/19 01:44:00;;;;;;;4.20;4.00;;;2.40;99.90;;;;;;6093305;23;20377;-74
2023/02/19 01:46:35;;;;;;;4.38;4.18;;;2.30;99.90;;;;;;6094385;23;20369;-75
2023/02/19 01:49:25;;;;;;;4.50;4.20;;;2.30;99.90;;;;;;6067022;23;20425;-75
2023/02/19 01:51:59;;;;;;;4.15;3.90;;;2.30;99.90;;;;;;6058892;23;20428;-75
2023/02/19 01:54:29;;;;;;;3.97;3.78;;;2.30;99.90;;;;;;6094436;23;20747;-74
2023/02/19 01:56:58;;;;;;;3.80;3.60;;;2.20;99.90;;;;;;6093049;23;20488;-75
2023/02/19 01:59:25;;;;;;;2.63;2.53;;;2.20;99.90;;;;;;6069116;23;20385;-75
